Date,TemperatureHighF,TemperatureAvgF,TemperatureLowF,DewpointHighF,DewpointAvgF,DewpointLowF,HumidityHigh,HumidityAvg,HumidityLow,PressureMaxIn,PressureMinIn,WindSpeedMaxMPH,WindSpeedAvgMPH,GustSpeedMaxMPH,PrecipitationSumIn
2012-1-1,44.3,37.0,30.3,40.5,33.5,25.2,92,87,79,29.96,29.49,15,9,26,0.01
2012-1-2,30.3,25.7,18.8,25.5,19.1,10.9,88,76,63,30.22,29.83,13,8,22,0.00
2012-1-3,21.3,19.0,16.2,15.0,11.1,8.7,80,71,63,30.35,30.21,12,6,20,0.00
2012-1-4,34.7,26.9,19.7,27.1,19.8,11.8,85,74,68,30.22,29.89,7,4,15,0.00
2012-1-5,42.1,33.3,25.1,33.2,27.6,22.7,93,80,58,30.03,29.68,6,2,13,0.00
2012-1-6,54.1,45.3,39.3,38.0,35.1,32.4,78,68,53,29.73,29.64,8,4,18,0.00
2012-1-7,42.4,37.9,31.6,35.4,30.5,25.8,84,75,64,30.21,29.68,10,4,18,0.00
2012-1-8,37.7,30.5,22.7,26.8,23.5,20.3,98,76,54,30.40,30.21,5,1,10,0.00
2012-1-9,40.2,32.6,24.5,29.6,25.5,21.3,92,76,55,30.32,29.92,7,3,14,0.00
2012-1-10,46.0,36.3,26.1,33.8,29.9,24.3,95,79,55,30.08,29.89,5,1,10,0.00
2012-1-11,49.6,38.4,25.3,36.0,31.4,23.6,96,77,56,29.89,29.52,5,1,11,0.00
2012-1-12,38.3,35.7,25.1,36.7,33.8,22.3,100,93,82,29.52,29.32,6,1,14,0.22
2012-1-13,25.7,21.7,19.5,24.0,18.6,16.3,95,88,82,30.00,29.38,10,4,19,0.00
2012-1-14,22.0,18.6,15.0,16.7,14.3,10.5,90,83,76,30.31,30.00,4,1,7,0.00
2012-1-15,27.1,20.0,15.1,17.5,14.2,10.9,92,78,65,30.50,30.31,9,4,16,0.00
2012-1-16,44.3,32.7,20.2,40.4,27.5,14.8,96,81,69,30.35,29.81,10,5,22,0.03
2012-1-17,42.7,35.7,23.2,41.9,33.9,17.1,100,93,75,30.04,29.37,13,4,24,0.47
2012-1-18,23.7,20.9,17.5,17.1,13.9,10.6,81,74,65,30.31,30.02,10,4,21,0.00
2012-1-19,26.5,17.7,5.3,24.0,11.5,-1.1,92,77,61,30.21,29.75,13,6,21,0.01
2012-1-20,16.8,9.4,-0.5,12.5,4.1,-3.7,92,80,62,30.37,30.19,3,1,7,0.00
2012-1-21,21.1,12.0,2.8,11.2,7.4,-0.4,90,82,62,30.39,30.18,4,1,6,0.06
2012-1-22,36.2,24.7,6.4,35.2,21.9,3.9,96,89,81,30.34,29.83,11,6,21,0.01
2012-1-23,47.9,40.9,31.2,46.0,38.6,25.3,100,92,79,29.83,29.43,13,9,25,0.37
2012-1-24,31.6,30.5,28.6,27.0,24.9,22.3,85,79,76,30.37,29.81,12,6,19,0.00
2012-1-25,30.2,28.8,27.2,25.0,23.4,21.5,87,80,76,30.43,30.21,4,1,7,0.00
2012-1-26,35.7,31.7,25.3,33.0,29.3,22.6,96,91,86,30.24,29.59,5,1,9,0.25
2012-1-27,38.4,33.6,30.2,32.3,29.6,25.6,97,86,65,29.98,29.56,9,3,16,0.11
2012-1-28,33.4,30.5,25.8,32.0,25.1,18.4,100,81,63,30.06,29.72,15,6,23,0.11
2012-1-29,30.5,26.4,23.1,27.6,22.1,15.7,93,84,71,30.25,29.92,10,3,15,0.05
2012-1-30,39.2,24.6,8.8,33.5,19.9,6.2,93,82,73,30.28,29.94,10,3,17,0.01
2012-1-31,55.3,47.9,39.3,46.9,40.3,33.5,86,75,64,29.95,29.80,8,4,14,0.03
2012-2-1,51.1,40.7,35.8,47.3,36.1,31.4,89,83,79,30.16,29.80,7,3,14,0.00
2012-2-2,37.1,32.9,24.4,31.4,29.0,22.5,100,85,77,30.45,30.16,4,1,7,0.00
2012-2-3,35.4,32.4,24.3,32.2,29.1,22.6,96,88,80,30.53,30.44,4,1,6,0.00
2012-2-4,43.2,32.4,23.6,30.2,26.4,21.1,95,80,56,30.46,30.21,3,0,6,0.00
2012-2-5,39.0,29.6,20.3,32.1,25.7,18.6,96,86,69,30.31,30.20,5,1,7,0.00
2012-2-6,45.7,34.8,26.0,32.2,28.8,23.9,94,80,52,30.24,30.05,10,4,16,0.01
2012-2-7,33.3,30.0,20.7,30.9,25.4,16.1,92,83,74,30.43,30.17,6,2,12,0.00
2012-2-8,33.5,24.5,16.4,20.8,17.7,14.2,93,76,51,30.42,30.25,7,2,13,0.00
2012-2-9,37.6,28.6,21.8,24.0,20.4,17.5,86,72,55,30.27,30.12,9,3,16,0.00
2012-2-10,32.2,26.3,11.8,30.7,22.5,9.2,95,85,79,30.12,29.90,11,4,18,0.02
2012-2-11,18.8,12.3,6.9,13.1,7.2,1.3,89,80,69,30.27,30.02,11,7,19,0.00
2012-2-12,28.9,21.5,15.6,18.0,14.3,9.4,86,74,61,30.26,30.16,9,6,17,0.01
2012-2-13,34.4,25.9,16.8,21.5,17.2,13.2,87,71,50,30.18,30.00,8,2,15,0.02
2012-2-14,31.7,29.8,25.8,28.8,25.8,18.0,92,85,64,30.07,29.89,4,2,10,0.01
2012-2-15,41.4,34.6,31.4,33.0,29.7,27.8,94,83,68,30.22,30.07,9,2,15,0.11
2012-2-16,40.0,36.9,29.5,38.3,34.7,26.8,97,92,82,30.09,29.94,7,3,16,0.33
2012-2-17,41.2,35.2,30.3,30.5,27.0,21.6,90,73,47,30.16,29.96,9,3,13,0.00
2012-2-18,38.7,31.1,21.5,32.4,24.0,16.3,87,75,60,30.28,29.93,12,5,19,0.01
2012-2-19,31.0,23.0,16.1,20.1,17.1,13.4,91,79,62,30.29,30.21,6,2,11,0.00
2012-2-20,40.3,26.7,14.1,25.2,19.5,11.9,94,76,53,30.44,30.17,6,2,11,0.00
2012-2-21,38.9,34.5,27.8,37.2,29.9,21.1,94,83,69,30.17,29.63,11,5,19,0.16
2012-2-22,40.7,35.6,28.9,32.0,29.7,26.5,94,80,60,29.69,29.44,7,3,14,0.00
2012-2-23,40.6,35.3,30.9,32.0,29.9,27.9,100,82,62,29.66,29.45,5,1,8,0.01
2012-2-24,34.4,31.4,28.6,31.7,29.1,24.5,95,91,83,29.77,29.31,11,4,20,0.14
2012-2-25,31.7,28.5,25.9,25.5,22.4,18.9,90,78,61,30.36,29.77,10,5,22,0.05
2012-2-26,35.8,29.2,18.0,26.3,21.5,15.4,93,73,60,30.46,30.14,12,5,20,0.07
2012-2-27,39.2,34.4,28.0,27.8,25.0,22.3,81,69,55,30.50,30.07,14,6,27,0.03
2012-2-28,42.1,31.2,19.0,27.7,23.7,16.8,100,75,54,30.55,30.18,6,2,13,0.03
2012-2-29,41.6,36.4,32.2,40.4,33.9,24.8,96,91,70,30.18,29.48,11,4,20,0.76
2012-3-1,41.1,36.5,33.0,34.4,32.5,31.2,100,86,73,29.92,29.57,8,3,16,0.03
2012-3-2,47.2,39.6,34.4,45.3,35.5,31.2,96,85,71,29.91,29.11,15,4,27,0.39
2012-3-3,37.9,33.1,27.3,32.8,26.8,21.5,89,78,63,29.76,29.20,18,11,33,0.00
2012-3-4,31.6,26.2,23.3,21.7,20.4,18.5,90,79,63,29.97,29.76,7,3,11,0.00
2012-3-5,28.7,23.4,17.3,19.7,15.8,9.5,92,73,59,30.45,29.96,9,3,16,0.00
2012-3-6,56.1,40.9,26.6,38.6,29.0,19.2,77,63,50,30.44,30.03,14,8,26,0.00
2012-3-7,65.8,57.2,48.9,47.5,39.0,30.3,61,51,45,30.11,29.86,11,6,28,0.00
2012-3-8,61.1,45.2,30.2,53.3,38.4,23.3,93,77,61,30.13,29.74,11,6,21,0.11
2012-3-9,34.4,30.0,19.4,26.6,18.9,11.2,81,64,44,30.58,30.10,13,6,23,0.00
2012-3-10,48.6,33.3,16.7,29.0,19.9,11.4,87,60,41,30.60,30.25,13,5,24,0.00
2012-3-11,66.2,52.8,39.5,34.6,30.9,27.1,62,45,28,30.34,30.20,8,3,15,0.00
2012-3-12,61.4,54.2,46.4,56.6,46.4,34.2,95,77,48,30.21,29.74,12,5,21,0.85
2012-3-13,60.9,52.9,43.9,51.2,41.0,30.2,96,69,33,30.13,29.85,11,4,22,0.01
2012-3-14,76.2,55.5,33.8,53.5,39.4,27.2,90,58,34,30.16,30.00,10,3,16,0.00
2012-3-15,76.7,65.5,57.4,64.2,57.9,52.3,90,77,64,30.03,29.91,8,2,14,0.05
2012-3-16,75.4,60.8,49.1,64.0,57.0,47.8,98,88,64,30.12,29.99,5,1,12,0.01
2012-3-17,77.3,65.7,54.7,59.2,56.4,53.0,94,74,47,30.18,30.07,10,2,16,0.00
2012-3-18,74.8,62.6,53.0,61.6,56.4,49.9,94,81,59,30.11,30.02,4,1,10,0.00
2012-3-19,78.7,64.8,50.3,62.7,57.2,49.1,98,78,56,30.11,30.02,8,2,17,0.01
2012-3-20,81.5,70.4,59.8,60.4,58.3,56.3,89,67,47,30.14,30.06,6,2,12,0.00
2012-3-21,85.8,72.1,58.3,63.2,56.8,53.5,86,61,38,30.18,30.06,6,2,15,0.00
2012-3-22,83.7,68.1,57.3,62.5,57.5,52.1,96,71,45,30.16,30.04,7,1,15,1.36
2012-3-23,71.6,62.1,54.9,60.9,57.4,53.8,98,86,63,30.09,29.87,5,1,9,0.07
2012-3-24,58.5,55.2,50.0,56.4,52.8,49.2,97,92,82,29.90,29.82,4,1,11,0.00
2012-3-25,68.1,55.2,44.9,55.2,46.2,30.4,98,75,34,30.11,29.88,10,4,17,0.01
2012-3-26,44.9,37.5,30.8,34.3,24.3,15.2,76,60,39,30.46,30.11,10,4,19,0.00
2012-3-27,53.2,39.6,27.8,34.9,25.3,16.1,74,57,43,30.45,29.85,13,6,26,0.00
2012-3-28,60.9,54.4,41.1,50.6,41.7,32.4,77,63,51,30.00,29.69,13,7,21,0.00
2012-3-29,41.1,38.4,33.1,32.6,30.4,27.6,80,73,68,30.20,30.00,8,3,13,0.00
2012-3-30,37.3,34.0,29.6,34.5,30.7,25.4,94,88,78,30.16,29.84,8,2,19,0.43
2012-3-31,43.4,37.4,32.8,34.3,32.4,31.0,94,83,68,30.06,29.95,4,1,7,0.00
2012-4-1,51.5,43.2,35.0,44.9,38.4,31.6,93,83,74,29.97,29.74,7,2,11,0.00
2012-4-2,58.2,43.9,30.5,39.6,34.9,28.5,95,73,45,30.10,29.89,4,1,11,0.00
2012-4-3,60.9,47.6,37.6,50.7,39.5,26.6,91,74,62,30.09,29.84,7,1,13,0.14
2012-4-4,60.2,48.0,33.5,46.3,34.9,27.5,95,64,33,29.99,29.90,9,2,16,0.00
2012-4-5,47.6,38.6,32.1,33.6,28.2,23.4,85,67,49,30.20,29.97,8,2,16,0.00
2012-4-6,56.4,39.5,23.2,34.5,26.9,20.7,94,64,34,30.36,30.20,6,2,11,0.00
2012-4-7,63.6,45.3,27.0,38.8,31.0,25.2,96,63,28,30.37,30.15,5,1,9,0.00
2012-4-8,58.4,51.0,42.8,43.3,34.0,24.1,83,55,27,30.15,30.02,14,6,25,0.00
2012-4-9,58.6,45.8,31.9,40.5,30.3,21.0,96,60,30,30.04,29.81,13,4,24,0.00
2012-4-10,43.7,38.8,35.7,32.5,28.5,23.6,80,67,51,30.05,29.87,12,6,19,0.00
2012-4-11,52.5,41.6,33.0,35.4,31.3,26.8,91,69,40,30.25,30.03,9,4,15,0.00
2012-4-12,55.9,40.1,27.1,37.4,30.9,25.3,97,73,39,30.30,30.18,6,1,11,0.00
2012-4-13,62.9,48.6,29.6,39.6,33.9,27.5,96,61,35,30.30,30.13,5,1,14,0.00
2012-4-14,67.0,56.3,47.7,56.3,46.2,34.0,89,69,53,30.15,29.88,7,3,17,0.00
2012-4-15,73.7,63.5,55.9,65.7,58.8,54.3,97,85,69,29.91,29.74,6,2,15,0.71
2012-4-16,69.2,60.8,43.6,60.1,50.5,34.6,84,69,55,30.12,29.59,17,8,30,0.06
2012-4-17,54.4,43.7,33.2,37.9,33.2,29.6,89,68,43,30.39,30.12,7,2,14,0.00
2012-4-18,64.0,48.0,30.6,45.2,36.7,27.9,93,67,44,30.37,29.99,9,3,14,0.00
2012-4-19,69.1,58.3,50.0,58.9,49.7,40.8,90,74,60,30.00,29.86,6,1,11,0.07
2012-4-20,68.5,48.8,37.1,52.9,43.8,34.7,95,84,56,29.93,29.67,10,4,22,0.26
2012-4-21,49.9,41.1,34.3,36.7,32.4,26.9,92,73,44,30.10,29.93,9,5,16,0.00
2012-4-22,51.5,40.9,30.4,34.8,27.6,22.6,91,63,35,30.08,30.00,11,4,19,0.00
2012-4-23,56.1,44.7,34.8,27.4,23.1,17.0,71,45,22,30.00,29.64,14,7,25,0.00
2012-4-24,59.0,48.1,38.3,31.6,25.8,20.8,60,43,27,29.73,29.55,15,8,29,0.00
2012-4-25,65.3,49.5,30.2,47.3,35.0,27.0,94,61,36,29.86,29.73,5,1,14,0.00
2012-4-26,53.2,48.0,36.2,47.5,40.9,23.9,93,77,53,30.11,29.65,12,4,21,0.03
2012-4-27,54.4,41.3,28.1,30.8,25.5,20.6,82,56,31,30.28,30.11,7,3,14,0.00
2012-4-28,48.1,41.6,36.2,30.5,24.7,20.3,71,51,41,30.31,30.22,4,2,9,0.00
2012-4-29,63.7,44.6,23.2,35.0,26.4,17.9,94,55,27,30.41,30.25,4,1,8,0.00
2012-4-30,53.5,47.5,39.8,51.1,40.9,17.2,96,80,31,30.28,29.90,6,2,13,0.67
2012-5-1,58.6,51.7,47.6,52.0,49.0,46.8,100,91,77,30.10,29.93,3,1,7,0.02
2012-5-2,82.7,64.0,50.6,68.7,56.2,48.1,92,78,46,29.99,29.82,9,3,17,0.00
2012-5-3,86.6,70.8,59.0,70.0,62.9,55.8,96,78,52,29.99,29.81,13,2,24,0.95
2012-5-4,73.8,64.1,56.2,67.1,61.8,53.9,98,92,78,30.05,29.90,6,1,14,0.58
2012-5-5,71.0,57.7,49.7,55.3,50.4,46.0,92,78,55,30.13,30.00,6,2,12,0.00
2012-5-6,69.1,59.7,47.5,50.0,43.7,36.7,89,59,36,30.15,29.97,3,1,10,0.02
2012-5-7,64.1,56.7,49.0,60.2,52.8,44.3,96,87,72,30.03,29.80,4,1,10,0.27
2012-5-8,69.7,59.4,51.5,56.8,51.1,43.6,96,76,48,29.84,29.77,7,2,18,0.01
2012-5-9,60.7,52.7,46.2,52.0,46.9,42.3,92,81,59,29.89,29.77,9,2,17,0.08
2012-5-10,64.4,51.4,38.4,42.8,37.8,32.7,87,62,34,30.02,29.88,8,2,15,0.00
2012-5-11,74.2,57.7,39.2,47.9,41.9,36.8,92,60,33,30.17,30.02,5,1,11,0.00
2012-5-12,64.1,60.2,57.3,60.2,51.9,40.2,97,76,48,30.22,30.13,3,0,10,0.32
2012-5-13,71.7,59.3,48.7,57.7,49.9,42.4,97,74,37,30.27,30.12,3,0,10,0.42
2012-5-14,76.0,61.0,44.9,53.7,45.3,37.5,98,63,29,30.13,30.00,4,1,10,0.00
2012-5-15,80.5,64.2,44.3,55.2,48.2,40.4,92,59,35,30.02,29.81,13,2,16,0.00
2012-5-16,63.6,55.9,48.1,55.2,42.6,33.7,90,63,40,30.16,29.85,10,4,17,0.07
2012-5-17,69.3,53.4,36.1,45.7,39.8,33.9,96,64,36,30.26,30.14,4,1,11,0.00
2012-5-18,78.1,63.5,45.4,50.2,43.4,38.2,89,52,27,30.19,30.07,5,1,12,0.00
2012-5-19,86.0,70.0,50.4,55.8,48.7,39.0,84,49,31,30.15,30.08,4,1,11,0.00
2012-5-20,88.2,76.1,62.7,61.3,55.3,49.5,64,50,34,30.14,29.97,5,2,14,0.00
2012-5-21,72.2,63.8,54.4,62.2,56.8,51.0,94,79,51,30.04,29.97,6,2,12,0.13
2012-5-22,70.1,58.8,48.6,54.9,49.9,45.4,92,74,48,30.04,29.93,6,2,14,0.01
2012-5-23,79.3,61.7,42.7,57.5,50.5,41.4,98,71,38,29.99,29.86,3,1,13,0.00
2012-5-24,83.4,72.4,58.1,65.5,59.8,51.1,87,66,52,29.93,29.74,8,3,16,0.00
2012-5-25,82.0,74.3,61.9,66.0,58.6,51.9,74,59,40,30.11,29.79,8,3,17,0.00
2012-5-26,74.6,66.2,59.2,61.5,57.7,49.4,94,75,58,30.26,30.09,4,0,13,0.06
2012-5-27,82.7,69.6,59.5,66.2,58.2,51.0,79,68,53,30.16,29.92,10,2,18,0.00
2012-5-28,91.8,79.7,66.3,71.5,65.7,60.6,88,64,43,29.92,29.70,5,1,17,0.00
2012-5-29,80.8,74.5,63.5,65.4,55.8,45.9,87,54,32,29.79,29.66,8,3,18,0.00
2012-5-30,69.3,60.2,47.1,51.7,48.1,44.8,95,66,44,29.92,29.78,7,2,13,0.00
2012-5-31,60.5,53.0,47.2,48.8,45.2,42.1,91,75,58,30.02,29.89,4,1,11,0.27
2012-6-1,54.1,50.4,46.5,53.0,48.9,44.4,96,95,90,29.91,29.55,7,3,13,0.52
2012-6-2,70.5,57.1,46.7,54.3,47.1,43.3,93,72,42,29.73,29.63,12,5,22,0.01
2012-6-3,76.1,65.4,56.3,56.7,51.2,48.1,82,62,39,29.80,29.68,10,4,24,0.00
2012-6-4,69.3,59.5,47.9,56.2,51.5,46.3,96,76,57,29.95,29.78,7,2,12,0.00
2012-6-5,68.8,58.8,48.8,53.2,49.4,46.9,95,73,52,30.05,29.95,7,1,13,0.00
2012-6-6,76.8,60.1,43.4,54.7,49.0,42.1,97,71,34,30.10,30.00,7,1,20,0.00
2012-6-7,80.3,64.9,48.3,58.1,52.1,46.9,98,68,37,30.11,30.02,7,2,14,0.00
2012-6-8,81.8,67.5,49.5,58.1,53.5,47.6,96,64,39,30.07,29.90,6,2,14,0.00
2012-6-9,87.2,74.6,63.1,61.2,56.7,50.6,86,55,37,29.93,29.86,8,2,16,0.00
2012-6-10,91.6,76.2,58.8,61.8,58.8,54.8,92,59,33,30.03,29.92,4,1,12,0.00
2012-6-11,77.2,72.8,68.8,69.8,63.9,57.0,91,74,52,29.96,29.82,8,2,17,0.00
2012-6-12,76.2,69.8,57.9,69.1,57.7,47.4,96,68,43,30.11,29.76,8,4,19,0.09
2012-6-13,74.7,58.8,41.6,49.2,44.6,39.2,94,62,38,30.24,30.12,3,1,7,0.00
2012-6-14,81.1,64.8,44.5,53.4,47.0,40.8,94,56,33,30.25,30.13,5,1,10,0.00
2012-6-15,89.4,73.8,56.3,61.7,56.4,45.0,93,58,31,30.18,30.10,5,1,11,0.00
2012-6-16,88.3,76.1,62.9,69.3,63.1,56.9,85,65,50,30.16,29.92,6,2,18,0.00
2012-6-17,81.4,73.2,60.8,70.3,64.4,55.4,91,75,47,29.92,29.79,4,1,11,0.01
2012-6-18,81.7,68.9,54.7,69.4,61.7,52.5,95,79,60,29.93,29.75,10,2,23,0.20
2012-6-19,93.0,82.8,74.5,73.5,69.2,65.2,75,64,50,29.99,29.82,6,2,14,0.00
2012-6-20,91.4,81.6,72.0,68.8,66.3,63.6,76,61,43,30.06,29.88,7,1,17,0.00
2012-6-21,87.9,76.2,63.2,70.6,65.5,60.8,93,70,54,29.93,29.81,9,2,17,0.00
2012-6-22,82.1,68.4,57.3,64.0,58.2,53.3,98,73,41,29.99,29.91,10,1,20,0.01
2012-6-23,81.6,68.7,53.5,60.8,55.5,51.8,98,67,37,30.06,29.98,3,0,6,0.00
2012-6-24,83.0,74.2,66.0,63.8,60.6,56.2,77,63,49,30.05,29.87,7,2,12,0.00
2012-6-25,73.0,65.3,53.5,63.1,50.9,44.6,86,62,40,30.06,29.92,9,3,18,0.00
2012-6-26,81.5,43.6,48.0,52.7,-7.5,-99.9,93,32,33,30.08,29.94,6,-380,13,0.00
2012-6-27,88.2,34.6,73.5,58.9,-35.8,-99.9,60,16,32,30.01,29.77,5,-586,12,0.00
2012-6-28,96.3,37.0,85.8,77.3,-30.5,-99.9,70,22,46,29.83,29.64,7,-600,13,0.00
2012-6-29,88.3,39.4,66.7,63.3,-22.8,-99.9,81,24,36,29.83,29.71,6,-518,12,0.00
2012-6-30,91.3,77.6,63.9,67.9,62.9,58.8,86,63,36,29.84,29.74,7,2,14,0.00
2012-7-1,90.8,76.7,60.2,67.1,62.1,58.5,97,64,35,29.96,29.84,5,1,12,0.00
2012-7-2,96.2,80.0,61.5,68.8,63.3,58.5,93,61,32,30.01,29.90,3,0,9,0.00
2012-7-3,92.8,78.8,72.4,77.2,69.8,64.0,89,74,48,29.92,29.76,9,2,17,0.08
2012-7-4,99.1,84.9,72.4,76.8,73.1,69.2,90,70,44,29.84,29.75,7,2,17,0.00
2012-7-5,88.0,79.5,75.3,74.5,72.8,70.7,94,81,60,29.95,29.83,3,0,19,0.77
2012-7-6,98.7,85.5,70.7,79.5,74.3,68.9,96,72,47,29.97,29.87,3,0,9,0.00
2012-7-7,89.7,81.6,74.8,77.6,72.8,61.5,94,76,57,29.98,29.85,7,2,14,0.00
2012-7-8,82.4,73.5,61.2,65.5,60.9,56.7,92,66,45,30.04,29.97,7,2,15,0.00
2012-7-9,85.4,73.1,59.0,65.1,60.0,55.7,95,67,39,30.06,29.97,6,1,11,0.00
2012-7-10,83.4,72.2,57.0,60.4,56.3,53.5,95,60,38,30.13,30.03,5,1,11,0.00
2012-7-11,85.2,70.9,53.3,60.2,55.0,51.6,98,62,34,30.19,30.12,4,0,9,0.00
2012-7-12,90.1,74.3,53.9,61.8,55.4,51.8,96,57,32,30.16,30.07,3,1,11,0.00
2012-7-13,93.2,78.7,59.9,69.1,62.4,57.3,94,60,34,30.12,30.03,6,1,14,0.00
2012-7-14,91.7,79.5,67.3,69.1,65.3,62.1,86,64,41,30.09,29.97,5,2,10,0.00
2012-7-15,89.9,80.3,70.4,71.4,68.9,65.8,90,70,47,30.02,29.91,6,2,14,0.00
2012-7-16,94.9,80.3,65.4,72.5,68.3,63.9,98,70,40,29.99,29.81,5,1,13,0.00
2012-7-17,97.7,85.4,72.6,74.1,69.0,64.6,88,60,38,29.88,29.72,9,3,16,0.00
2012-7-18,85.3,74.6,69.0,72.4,69.1,65.2,96,84,61,29.98,29.79,4,1,9,0.26
2012-7-19,73.6,69.5,65.7,68.2,65.0,62.0,96,86,73,29.99,29.91,3,1,10,0.45
2012-7-20,80.9,70.1,60.9,63.9,60.2,57.3,96,73,46,30.09,29.99,4,1,11,0.00
2012-7-21,86.3,71.5,54.5,66.5,60.4,53.4,98,71,47,30.11,30.00,5,1,11,0.00
2012-7-22,89.8,78.3,66.9,72.2,67.2,60.6,83,70,53,30.07,29.97,6,1,14,0.00
2012-7-23,94.7,82.5,72.4,74.0,69.3,66.3,89,66,42,30.01,29.77,9,3,18,0.06
2012-7-24,83.6,75.9,65.9,70.1,62.9,53.1,84,65,44,29.99,29.82,7,2,12,0.00
2012-7-25,89.3,72.7,53.4,74.0,60.2,50.7,92,67,44,29.99,29.59,7,2,15,0.00
2012-7-26,83.5,74.3,69.3,75.5,70.4,67.1,97,88,66,29.74,29.58,8,1,16,1.61
2012-7-27,78.2,70.0,65.6,70.0,67.0,63.3,97,91,74,29.93,29.72,3,0,7,0.17
2012-7-28,79.6,69.3,59.5,66.2,61.4,54.8,95,78,50,30.09,29.93,6,2,11,0.01
2012-7-29,84.1,69.5,55.3,64.1,58.6,54.1,99,72,42,30.12,30.01,3,0,7,0.00
2012-7-30,89.0,76.9,65.2,66.9,63.4,59.9,85,65,42,30.04,29.87,3,0,12,0.00
2012-7-31,83.5,73.1,63.9,71.4,65.7,61.6,95,79,59,29.94,29.79,11,2,20,0.18
2012-8-1,81.4,70.9,58.9,65.2,61.4,56.3,97,74,46,29.95,29.87,5,1,10,0.00
2012-8-2,87.8,73.3,60.5,72.6,64.8,57.1,93,76,57,29.92,29.83,3,0,9,0.00
2012-8-3,94.0,80.8,66.6,72.0,68.1,65.0,96,69,41,29.93,29.87,3,0,9,0.00
2012-8-4,89.7,79.9,67.8,75.1,70.2,64.4,93,73,58,29.96,29.76,6,1,16,0.04
2012-8-5,82.4,74.4,60.7,70.3,63.6,53.2,92,71,41,30.12,29.81,9,3,17,0.00
2012-8-6,84.0,67.3,50.3,58.0,53.5,48.9,97,66,35,30.18,30.01,4,0,10,0.00
2012-8-7,88.3,71.2,53.4,65.9,59.2,52.0,97,69,40,30.01,29.89,5,1,12,0.00
2012-8-8,82.9,72.4,63.3,64.1,60.5,55.3,95,69,40,29.99,29.93,6,1,14,0.00
2012-8-9,69.7,64.8,60.9,64.0,62.0,57.9,96,91,69,29.97,29.82,3,0,7,0.77
2012-8-10,65.9,62.3,58.2,65.2,61.3,57.1,100,97,95,29.82,29.65,8,2,17,2.38
2012-8-11,67.6,61.4,57.6,63.2,59.4,56.8,98,93,81,29.95,29.70,5,2,14,0.23
2012-8-12,76.8,65.9,56.2,63.4,59.3,54.7,97,81,56,30.01,29.94,5,1,10,0.00
2012-8-13,73.1,65.2,60.0,64.1,61.1,58.6,96,87,67,30.01,29.95,3,0,6,0.00
2012-8-14,76.7,67.2,61.0,62.8,61.0,58.9,97,82,56,29.96,29.88,4,1,7,0.20
2012-8-15,81.5,68.4,58.0,63.9,60.0,57.1,98,78,50,29.97,29.90,2,0,5,0.00
2012-8-16,78.4,70.2,61.8,67.2,64.0,60.1,96,81,64,29.95,29.73,8,2,17,0.02
2012-8-17,72.7,64.7,56.2,63.0,57.3,50.3,96,78,54,29.99,29.82,6,2,12,0.01
2012-8-18,75.5,60.3,44.8,56.8,50.4,43.5,97,73,43,30.06,29.95,2,0,6,0.00
2012-8-19,77.4,62.9,50.9,58.7,53.7,49.6,98,75,39,29.99,29.90,6,1,15,0.00
2012-8-20,74.2,62.2,50.1,59.6,53.0,48.8,98,75,45,30.01,29.94,5,1,9,0.00
2012-8-21,77.8,62.8,49.2,60.5,53.1,47.9,98,74,41,30.10,30.00,4,0,9,0.00
2012-8-22,81.7,65.9,51.4,61.0,56.0,50.3,98,74,41,30.16,30.07,3,0,10,0.00
2012-8-23,86.8,68.7,51.3,63.6,58.0,50.2,100,73,40,30.16,30.07,3,0,6,0.00
2012-8-24,89.5,75.4,61.4,67.1,61.9,58.0,90,65,38,30.12,30.03,5,1,10,0.00
2012-8-25,91.8,77.6,62.0,68.0,62.5,58.7,96,63,37,30.11,30.04,4,1,9,0.00
2012-8-26,89.9,76.9,64.8,69.1,65.1,60.8,91,69,45,30.11,29.97,5,2,14,0.03
2012-8-27,83.0,73.6,68.1,72.0,67.4,59.9,98,83,50,30.03,29.93,6,1,15,0.90
2012-8-28,77.0,66.6,56.6,62.1,58.3,54.6,95,76,51,30.11,30.01,6,2,14,0.00
2012-8-29,79.3,65.4,52.0,61.4,57.2,50.6,98,78,48,30.14,30.04,2,0,6,0.01
2012-8-30,85.1,70.4,58.4,65.3,60.5,56.5,95,73,45,30.10,29.97,6,1,12,0.01
2012-8-31,91.0,77.7,66.8,70.0,63.4,57.8,77,63,45,30.05,29.96,9,2,18,0.00
2012-9-1,83.5,72.3,59.6,65.7,59.7,56.8,92,66,45,30.13,30.03,2,0,7,0.00
2012-9-2,84.8,72.4,63.4,67.2,61.8,57.1,91,71,49,30.06,29.96,4,1,11,0.00
2012-9-3,89.8,74.4,59.0,72.2,65.6,57.3,97,76,52,30.00,29.86,2,0,6,0.00
2012-9-4,81.5,71.7,66.2,71.7,68.1,64.7,98,89,68,29.91,29.84,7,0,11,2.20
2012-9-5,79.9,71.3,63.1,71.3,67.4,62.0,98,88,73,29.88,29.75,7,1,15,0.01
2012-9-6,84.0,70.8,59.6,66.8,62.9,58.7,98,79,49,29.91,29.81,2,0,5,0.00
2012-9-7,78.3,66.2,58.3,65.5,60.7,56.6,98,84,59,29.92,29.65,10,1,15,0.55
2012-9-8,68.0,60.1,53.6,57.4,53.9,49.5,96,81,59,29.86,29.65,8,3,16,0.26
2012-9-9,69.2,57.3,47.6,54.9,49.6,46.2,98,78,45,30.12,29.86,6,1,12,0.00
2012-9-10,73.8,57.3,42.9,55.2,48.8,41.6,98,76,43,30.26,30.12,3,0,9,0.00
2012-9-11,79.9,65.2,52.4,60.6,53.6,46.8,83,67,47,30.22,30.12,6,1,16,0.00
2012-9-12,83.6,70.0,59.2,63.5,57.1,51.7,78,65,43,30.21,30.14,4,1,12,0.00
2012-9-13,81.5,69.0,57.6,65.7,59.5,55.6,94,73,47,30.26,30.15,7,1,14,0.02
2012-9-14,70.0,58.6,49.4,55.6,51.1,46.4,96,79,47,30.30,30.24,8,2,13,0.47
2012-9-15,71.3,55.6,42.3,53.3,47.6,41.0,97,78,44,30.37,30.17,4,0,10,0.00
2012-9-16,76.7,62.4,50.0,55.6,51.4,46.5,91,70,42,30.17,30.02,3,0,7,0.00
2012-9-17,76.3,65.1,54.4,58.7,53.9,47.7,86,68,50,30.03,29.69,4,1,13,0.00
2012-9-18,64.1,55.4,41.3,59.4,48.2,36.8,93,77,54,29.98,29.63,9,3,14,0.02
2012-9-19,65.8,52.1,37.6,43.8,39.7,35.8,95,66,42,30.13,29.96,8,2,15,0.00
2012-9-20,69.3,59.0,48.4,55.0,46.8,40.6,87,65,50,29.97,29.83,7,2,18,0.12
2012-9-21,67.5,54.8,45.3,50.1,45.8,41.3,95,74,42,29.94,29.79,6,1,13,0.17
2012-9-22,56.4,51.2,41.7,49.4,44.9,38.4,96,80,59,30.09,29.74,8,2,15,0.04
2012-9-23,54.9,46.5,39.0,42.9,40.6,36.9,96,81,53,30.24,30.09,8,2,12,0.03
2012-9-24,62.2,49.7,36.2,43.4,38.5,34.6,95,69,43,30.24,29.91,7,2,16,0.00
2012-9-25,68.5,58.3,48.5,53.8,47.1,37.8,91,67,55,29.95,29.85,5,1,14,0.00
2012-9-26,69.5,59.1,50.8,57.2,53.3,45.3,97,83,53,30.17,29.88,3,1,8,0.00
2012-9-27,67.1,53.9,41.2,51.1,45.4,39.6,96,75,50,30.28,30.16,3,0,7,0.00
2012-9-28,67.6,55.6,45.6,50.8,47.6,43.8,94,76,50,30.20,30.09,4,0,8,0.00
2012-9-29,70.8,55.3,42.7,50.1,45.2,41.4,97,72,41,30.11,29.95,5,1,10,0.00
2012-9-30,63.8,51.3,39.4,50.5,45.5,37.8,97,82,55,30.00,29.95,6,1,13,0.01
2012-10-1,67.0,51.5,37.3,52.6,44.8,36.0,98,81,49,29.99,29.87,2,0,5,0.00
2012-10-2,70.7,59.1,50.4,54.1,50.7,48.3,93,75,52,29.94,29.85,4,0,7,0.00
2012-10-3,65.6,59.5,53.7,61.2,55.5,51.2,97,87,73,30.07,29.92,3,0,11,0.02
2012-10-4,75.5,64.2,55.1,59.3,54.5,51.6,92,73,47,30.08,29.97,8,2,18,0.07
2012-10-5,61.4,52.2,45.5,59.4,46.4,42.0,94,81,62,30.07,29.96,8,3,14,0.03
2012-10-6,47.5,43.6,38.5,42.7,37.1,34.3,94,78,62,30.15,29.94,8,3,18,0.01
2012-10-7,48.9,41.4,32.6,38.8,35.6,30.5,95,81,57,30.18,30.11,2,0,5,0.00
2012-10-8,54.6,42.1,30.8,36.1,31.7,29.0,100,70,42,30.24,30.12,6,1,13,0.00
2012-10-9,61.6,50.6,39.8,41.7,36.7,31.3,74,60,45,30.15,29.82,8,3,19,0.00
2012-10-10,53.2,42.7,31.1,42.4,35.6,26.9,94,77,57,30.18,29.78,9,4,18,0.18
2012-10-11,60.4,45.2,31.9,42.5,34.6,27.4,89,69,42,30.22,30.03,10,4,22,0.03
2012-10-12,52.2,40.3,30.8,37.5,32.3,27.7,92,75,41,30.49,30.22,5,1,9,0.04
2012-10-13,60.4,44.3,31.5,59.5,41.5,29.4,98,90,78,30.43,29.89,8,3,17,0.94
2012-10-14,68.6,63.5,56.4,62.5,60.4,54.6,97,90,76,29.90,29.40,11,4,23,0.38
2012-10-15,56.4,47.3,44.3,54.7,43.3,39.2,94,86,82,29.97,29.45,10,5,23,0.05
2012-10-16,59.0,47.4,32.4,44.2,38.8,30.6,96,73,51,30.02,29.76,6,1,12,0.00
2012-10-17,73.4,61.4,50.7,55.4,49.3,43.1,91,66,42,29.76,29.54,11,6,24,0.16
2012-10-18,59.2,55.1,49.9,55.3,46.4,37.0,94,74,46,29.66,29.36,10,4,19,0.46
2012-10-19,54.4,49.6,45.3,44.5,41.8,38.3,94,75,63,29.66,29.55,9,3,19,0.11
2012-10-20,53.3,46.4,42.9,46.2,43.9,40.6,96,91,74,29.93,29.59,7,1,15,0.20
2012-10-21,61.1,47.6,36.6,48.9,41.8,35.6,97,82,52,30.12,29.92,4,1,14,0.01
2012-10-22,72.8,57.9,43.4,60.8,51.3,40.4,92,79,61,30.11,29.96,5,1,11,0.12
2012-10-23,64.8,61.0,58.6,61.7,59.4,56.7,97,94,85,30.02,29.90,4,0,11,0.51
2012-10-24,77.9,66.5,59.3,64.6,60.8,58.2,97,83,61,30.03,29.94,5,1,13,0.05
2012-10-25,76.0,67.8,60.6,61.0,57.3,54.6,82,70,53,29.97,29.80,14,5,25,0.00
2012-10-26,68.1,48.1,37.1,57.1,41.3,33.8,92,78,62,30.26,29.81,10,4,21,0.03
2012-10-27,51.8,41.2,31.4,40.6,33.9,28.5,92,76,51,30.27,30.19,8,2,16,0.00
2012-10-28,46.2,40.0,33.8,37.7,31.6,28.5,87,72,57,30.28,30.18,9,5,19,0.00
2012-10-29,42.1,39.4,37.1,32.8,29.7,25.4,74,68,56,30.18,29.82,16,10,27,0.00
2012-10-30,38.0,35.0,32.7,36.7,33.3,29.8,95,94,75,29.82,29.54,15,10,26,0.35
2012-10-31,40.6,37.3,34.5,38.9,35.6,33.2,96,93,87,29.70,29.58,9,6,16,0.05
2012-11-1,45.5,40.5,37.3,37.5,34.0,29.8,95,78,61,29.82,29.70,9,5,19,0.00
2012-11-2,40.6,38.3,34.0,32.6,30.8,28.8,88,74,69,30.12,29.81,12,6,20,0.00
2012-11-3,38.2,33.3,28.0,31.2,28.6,26.2,94,83,73,30.25,30.12,6,2,10,0.00
2012-11-4,39.2,32.4,23.2,29.4,26.5,20.9,92,79,64,30.27,30.21,5,1,9,0.00
2012-11-5,39.3,32.1,23.0,31.3,27.7,21.0,94,84,69,30.28,30.22,5,1,9,0.00
2012-11-6,42.2,33.6,25.8,30.1,27.7,24.0,95,80,60,30.22,30.04,6,1,12,0.00
2012-11-7,46.2,34.7,25.6,36.0,29.1,23.3,93,81,59,30.22,30.04,3,0,9,0.00
2012-11-8,45.1,27.4,21.2,36.4,24.5,19.5,97,89,64,30.29,30.20,2,0,5,0.01
2012-11-11,67.5,62.0,54.6,52.2,46.3,39.9,70,57,45,30.10,29.92,15,10,28,0.00
2012-11-12,61.5,44.5,32.5,52.0,37.7,23.7,94,78,50,30.26,29.88,12,6,31,0.52
2012-11-13,32.8,29.1,20.2,27.7,21.8,17.5,90,74,59,30.60,30.26,8,2,14,0.00
2012-11-14,40.2,29.4,18.0,27.9,23.0,16.1,100,78,56,30.66,30.49,4,1,9,0.00
2012-11-15,44.0,32.9,24.0,33.4,27.9,22.0,95,83,62,30.51,30.38,2,0,6,0.00
2012-11-16,52.1,33.9,22.5,39.2,29.4,20.8,100,85,56,30.56,30.42,3,0,6,0.01
2012-11-17,53.5,36.7,26.2,38.2,30.1,24.6,97,80,48,30.66,30.56,4,0,10,0.00
2012-11-18,55.3,42.3,29.6,42.3,35.7,27.6,96,80,48,30.60,30.44,4,1,10,0.01
2012-11-19,54.9,41.6,28.4,40.9,32.7,26.8,97,74,45,30.45,30.21,4,0,10,0.00
2012-11-20,55.3,45.9,38.8,43.7,39.2,32.1,95,78,59,30.22,30.10,1,0,4,0.04
2012-11-21,57.3,43.8,32.3,45.7,39.8,31.0,97,87,62,30.27,30.17,4,0,7,0.01
2012-11-22,61.9,50.9,42.7,47.4,43.7,40.8,94,78,54,30.18,29.80,11,4,24,0.04
2012-11-23,53.9,39.2,31.4,48.7,32.5,22.0,90,77,66,30.04,29.68,12,8,26,0.04
2012-11-24,31.9,30.0,28.1,22.3,20.5,18.9,71,68,60,30.15,30.03,10,5,18,0.00
2012-11-25,34.3,30.1,25.9,29.1,25.0,20.0,90,81,72,30.08,29.88,6,2,11,0.01
2012-11-26,32.1,30.7,28.4,25.6,22.2,18.7,81,71,61,30.35,30.05,6,2,10,0.00
2012-11-27,34.1,25.4,16.0,21.4,18.0,13.2,92,74,55,30.42,30.28,5,1,9,0.01
2012-11-28,37.9,30.4,25.4,26.4,21.9,19.1,83,71,57,30.36,30.24,8,2,14,0.00
2012-11-29,47.4,36.2,26.4,31.8,27.3,21.7,87,71,52,30.33,30.21,8,2,14,0.00
2012-11-30,40.0,36.4,31.4,36.4,32.2,26.6,89,84,80,30.31,30.20,5,1,12,0.00
2012-12-1,55.6,41.3,31.8,47.7,37.7,28.9,95,88,74,30.31,30.00,11,4,17,0.00
2012-12-2,56.1,52.1,40.5,53.5,48.8,38.3,96,89,74,30.13,29.92,8,2,19,0.38
2012-12-3,61.6,50.1,33.2,58.8,48.6,31.9,98,95,84,30.15,29.90,11,4,22,0.00
2012-12-4,62.7,59.7,52.2,57.6,56.0,50.2,95,88,82,29.96,29.89,6,3,12,0.32
2012-12-10,37.4,32.4,27.7,36.6,29.2,21.8,97,88,77,29.92,29.65,7,4,14,0.05
2012-12-11,33.3,27.8,19.2,27.3,21.8,16.2,92,78,68,30.18,29.92,5,2,11,0.01
2012-12-12,42.7,32.6,26.6,30.5,25.3,22.4,87,75,53,30.40,30.18,7,2,11,0.00
2012-12-13,46.2,36.1,29.9,29.0,26.7,24.5,81,69,48,30.40,30.18,8,4,16,0.00
2012-12-14,47.7,36.4,28.8,34.8,29.3,24.9,90,76,57,30.29,30.20,2,0,5,0.00
2012-12-15,43.4,38.4,30.9,41.5,34.4,28.7,94,86,71,30.22,29.71,11,4,19,0.09
2012-12-16,49.2,45.8,41.1,47.8,44.3,39.0,98,94,90,29.71,29.60,8,2,13,0.15
2012-12-17,41.1,38.7,36.5,39.0,35.5,33.7,93,88,84,29.76,29.66,6,1,10,0.00
2012-12-18,39.9,34.7,29.2,34.0,30.5,27.4,94,85,67,29.81,29.67,6,1,11,0.01
2012-12-19,40.8,35.5,33.5,34.0,32.3,30.6,96,88,73,30.17,29.78,4,1,7,0.01
2012-12-20,45.5,39.0,34.1,44.2,36.5,31.3,95,91,84,30.13,29.17,14,6,23,0.96
2012-12-21,35.1,30.7,27.1,31.5,27.4,23.1,95,88,76,29.93,29.19,15,8,32,0.00
2012-12-22,32.1,28.8,25.2,25.0,22.7,20.7,92,78,71,30.12,29.93,15,5,24,0.01
2012-12-23,31.1,26.3,20.8,26.3,21.5,17.4,90,82,74,30.10,29.93,6,2,12,0.01
2012-12-24,30.2,24.7,16.1,25.3,21.2,13.7,93,87,78,30.08,29.90,4,1,8,0.00
2012-12-25,31.1,27.2,24.4,23.8,22.1,20.3,93,81,69,30.39,30.06,6,2,12,0.01
2012-12-26,29.2,27.5,25.0,27.5,23.8,22.3,100,86,79,30.34,29.94,8,4,17,0.01
2012-12-27,27.6,23.0,12.2,25.8,20.1,9.7,100,89,78,30.21,29.94,9,4,16,0.07
2012-12-28,29.0,18.8,6.5,24.1,16.2,3.9,94,90,81,30.25,30.02,2,0,6,0.02
2012-12-29,28.0,24.8,19.8,24.6,22.1,16.5,93,90,81,30.11,29.89,6,2,10,0.00
2012-12-30,27.7,23.5,18.3,24.2,20.0,15.0,98,86,81,30.34,30.11,7,2,13,0.00
2012-12-31,33.9,27.7,21.4,29.8,22.8,17.4,86,82,72,30.23,29.96,8,3,18,0.03
2013-1-1,26.3,20.6,11.9,19.0,13.1,7.5,86,73,61,30.22,30.07,7,3,10,0.00